Niarada, Montana
Current Conditions -  °F | °C
As of 12:53 AM on Thursday 18 Dec 2014 (Local Time) from KMSO Reporting Station
Overcast Overcast  
Wind Chill: 28°   Ceiling: 7000
Heat Index: 28°   Visibility: 10mi
Dew Point: 24°   Wind: 3mph
Humidity: 85%   Direction: 50°NE
Pressure: 29.99"   Gusts: NA
Location:  47.5344°N, 114.56°W
Report Text: KMSO 180753Z AUTO 05003KT 10SM OVC070 M02/M04 A2999 RMK AO2 SLP183 T10221044
Loading
Personal Weather Stations






























Interactive Weather Map New forecast layout! Learn more

10-Day Weather Forecast

Advertisements
Track Severe Weather on mobile